createdAt,value
2023-05-20T00:01:56.214Z,20.30
2023-05-20T00:04:23.113Z,20.30
2023-05-20T00:06:49.860Z,20.30
2023-05-20T00:09:19.762Z,20.30
2023-05-20T00:11:47.044Z,20.30
2023-05-20T00:14:14.268Z,20.30
2023-05-20T00:16:41.415Z,20.30
2023-05-20T00:19:08.314Z,20.30
2023-05-20T00:21:35.065Z,20.30
2023-05-20T00:24:01.839Z,20.20
2023-05-20T00:26:29.488Z,20.30
2023-05-20T00:28:57.458Z,20.20
2023-05-20T00:31:24.424Z,20.20
2023-05-20T00:33:51.367Z,20.20
2023-05-20T00:36:18.110Z,20.20
2023-05-20T00:38:44.905Z,20.20
2023-05-20T00:41:12.228Z,20.20
2023-05-20T00:43:39.036Z,20.20
2023-05-20T00:46:05.983Z,20.20
2023-05-20T00:48:43.284Z,20.20
2023-05-20T00:51:14.629Z,20.20
2023-05-20T00:53:42.169Z,20.20
2023-05-20T00:56:09.406Z,20.20
2023-05-20T00:58:37.978Z,20.10
2023-05-20T01:01:06.106Z,20.10
2023-05-20T01:03:33.699Z,20.10
2023-05-20T01:06:01.201Z,20.10
2023-05-20T01:08:28.599Z,20.10
2023-05-20T01:11:08.723Z,20.10
2023-05-20T01:13:51.498Z,20.10
2023-05-20T01:16:20.115Z,20.10
2023-05-20T01:18:48.669Z,20.10
2023-05-20T01:21:17.244Z,20.10
2023-05-20T01:23:44.387Z,20.10
2023-05-20T01:26:14.025Z,20.10
2023-05-20T01:28:43.697Z,20.10
2023-05-20T01:31:33.033Z,20.10
2023-05-20T01:34:00.641Z,20.10
2023-05-20T01:36:29.697Z,20.10
2023-05-20T01:38:57.513Z,20.10
2023-05-20T01:41:26.902Z,20.00
2023-05-20T01:43:55.649Z,20.00
2023-05-20T01:46:22.509Z,20.00
2023-05-20T01:48:49.314Z,20.00
2023-05-20T01:51:16.754Z,20.00
2023-05-20T01:53:43.749Z,20.00
2023-05-20T01:56:10.592Z,20.00
2023-05-20T01:58:37.387Z,20.00
2023-05-20T02:01:04.241Z,20.00
2023-05-20T02:03:31.090Z,20.00
2023-05-20T02:05:59.672Z,20.00
2023-05-20T02:08:26.694Z,20.00
2023-05-20T02:10:53.501Z,20.00
2023-05-20T02:13:20.438Z,19.90
2023-05-20T02:15:48.337Z,19.90
2023-05-20T02:18:18.565Z,20.00
2023-05-20T02:20:45.447Z,19.90
2023-05-20T02:23:12.353Z,20.00
2023-05-20T02:25:39.628Z,19.90
2023-05-20T02:28:10.601Z,19.90
2023-05-20T02:30:38.797Z,19.90
2023-05-20T02:33:06.900Z,19.90
2023-05-20T02:35:33.842Z,19.90
2023-05-20T02:38:00.925Z,19.90
2023-05-20T02:40:27.922Z,19.90
2023-05-20T02:42:54.681Z,19.90
2023-05-20T02:45:21.462Z,19.90
2023-05-20T02:47:48.271Z,19.90
2023-05-20T02:50:15.138Z,19.90
2023-05-20T02:52:42.540Z,19.80
2023-05-20T02:55:10.057Z,19.90
2023-05-20T02:57:38.428Z,19.80
2023-05-20T03:00:11.056Z,19.90
2023-05-20T03:02:37.853Z,19.90
2023-05-20T03:05:05.223Z,19.90
2023-05-20T03:07:36.192Z,19.80
2023-05-20T03:10:03.375Z,19.80
2023-05-20T03:12:31.114Z,19.80
2023-05-20T03:14:59.021Z,19.80
2023-05-20T03:17:25.951Z,19.80
2023-05-20T03:19:52.753Z,19.80
2023-05-20T03:22:19.521Z,19.80
2023-05-20T03:24:46.473Z,19.80
2023-05-20T03:27:13.881Z,19.80
2023-05-20T03:29:41.027Z,19.80
2023-05-20T03:32:10.858Z,19.80
2023-05-20T03:34:38.357Z,19.80
2023-05-20T03:37:05.798Z,19.80
2023-05-20T03:39:32.594Z,19.70
2023-05-20T03:42:00.085Z,19.70
2023-05-20T03:44:27.075Z,19.80
2023-05-20T03:46:54.473Z,19.70
2023-05-20T03:49:21.342Z,19.70
2023-05-20T03:51:48.204Z,19.70
2023-05-20T03:54:17.323Z,19.70
2023-05-20T03:56:49.217Z,19.70
2023-05-20T03:59:16.315Z,19.70
2023-05-20T04:01:43.045Z,19.70
2023-05-20T04:04:11.141Z,19.70
2023-05-20T04:06:37.988Z,19.70
2023-05-20T04:09:04.850Z,19.70
2023-05-20T04:11:31.814Z,19.70
2023-05-20T04:14:00.157Z,19.70
2023-05-20T04:16:27.165Z,19.60
2023-05-20T04:18:54.090Z,19.70
2023-05-20T04:21:21.039Z,19.70
2023-05-20T04:23:48.355Z,19.70
2023-05-20T04:26:15.396Z,19.60
2023-05-20T04:28:42.192Z,19.70
2023-05-20T04:31:09.024Z,19.60
2023-05-20T04:33:40.003Z,19.60
2023-05-20T04:36:10.131Z,19.60
2023-05-20T04:38:37.357Z,19.60
2023-05-20T04:41:04.770Z,19.60
2023-05-20T04:43:31.760Z,19.60
2023-05-20T04:45:59.829Z,19.60
2023-05-20T04:48:27.257Z,19.60
2023-05-20T04:50:54.457Z,19.60
2023-05-20T04:53:24.014Z,19.60
2023-05-20T04:55:54.213Z,19.60
2023-05-20T04:58:24.255Z,19.60
2023-05-20T05:00:51.818Z,19.60
2023-05-20T05:03:18.923Z,19.60
2023-05-20T05:05:45.786Z,19.60
2023-05-20T05:08:12.707Z,19.60
2023-05-20T05:10:45.902Z,19.60
2023-05-20T05:13:12.733Z,19.60
2023-05-20T05:15:39.554Z,19.60
2023-05-20T05:18:06.306Z,19.60
2023-05-20T05:20:34.604Z,19.60
2023-05-20T05:23:01.618Z,19.60
2023-05-20T05:25:28.904Z,19.60
2023-05-20T05:27:58.413Z,19.60
2023-05-20T05:30:25.526Z,19.60
2023-05-20T05:32:52.504Z,19.60
2023-05-20T05:35:20.049Z,19.60
2023-05-20T05:37:46.936Z,19.60
2023-05-20T05:40:13.981Z,19.60
2023-05-20T05:42:41.087Z,19.60
2023-05-20T05:45:09.697Z,19.60
2023-05-20T05:47:36.982Z,19.60
2023-05-20T05:50:04.621Z,19.60
2023-05-20T05:52:33.719Z,19.70
2023-05-20T05:55:02.946Z,19.70
2023-05-20T05:57:30.813Z,19.70
2023-05-20T05:59:58.552Z,19.70
2023-05-20T06:02:25.488Z,19.70
2023-05-20T06:04:52.400Z,19.80
2023-05-20T06:07:19.589Z,19.70
2023-05-20T06:09:46.433Z,19.80
2023-05-20T06:12:14.112Z,19.80
2023-05-20T06:14:41.031Z,19.80
2023-05-20T06:17:07.921Z,19.80
2023-05-20T06:19:35.248Z,19.80
2023-05-20T06:22:03.390Z,19.80
2023-05-20T06:24:30.204Z,19.80
2023-05-20T06:26:57.148Z,19.90
2023-05-20T06:29:24.258Z,19.80
2023-05-20T06:31:51.131Z,19.90
2023-05-20T06:34:17.934Z,19.90
2023-05-20T06:36:44.728Z,19.90
2023-05-20T06:39:12.257Z,19.90
2023-05-20T06:41:40.935Z,19.90
2023-05-20T06:44:10.193Z,19.90
2023-05-20T06:46:57.206Z,19.90
2023-05-20T06:49:24.809Z,20.00
2023-05-20T06:51:51.662Z,19.90
2023-05-20T06:54:18.790Z,19.90
2023-05-20T06:56:46.904Z,20.00
2023-05-20T06:59:15.176Z,20.00
2023-05-20T07:01:43.077Z,20.00
2023-05-20T07:04:10.019Z,20.00
2023-05-20T07:06:37.193Z,20.00
2023-05-20T07:09:04.013Z,20.00
2023-05-20T07:11:32.289Z,20.00
2023-05-20T07:13:59.578Z,20.00
2023-05-20T07:16:27.524Z,20.10
2023-05-20T07:18:55.864Z,20.10
2023-05-20T07:21:22.916Z,20.10
2023-05-20T07:23:56.926Z,20.10
2023-05-20T07:26:23.733Z,20.10
2023-05-20T07:28:51.531Z,20.10
2023-05-20T07:31:18.432Z,20.10
2023-05-20T07:33:45.569Z,20.10
2023-05-20T07:36:12.924Z,20.10
2023-05-20T07:38:49.724Z,20.10
2023-05-20T07:41:24.100Z,20.10
2023-05-20T07:43:51.121Z,20.10
2023-05-20T07:46:20.130Z,20.10
2023-05-20T07:48:47.470Z,20.20
2023-05-20T07:51:15.334Z,20.10
2023-05-20T07:53:42.136Z,20.10
2023-05-20T07:56:09.019Z,20.10
2023-05-20T07:58:37.228Z,20.10
2023-05-20T08:01:04.275Z,20.10
2023-05-20T08:03:31.663Z,20.10
2023-05-20T08:06:06.721Z,20.10
2023-05-20T08:08:33.769Z,20.10
2023-05-20T08:11:08.001Z,20.10
2023-05-20T08:13:34.967Z,20.10
2023-05-20T08:16:08.688Z,20.10
2023-05-20T08:18:38.843Z,20.10
2023-05-20T08:21:09.300Z,20.10
2023-05-20T08:23:40.228Z,20.20
2023-05-20T08:26:07.662Z,20.20
2023-05-20T08:28:37.908Z,20.20
2023-05-20T08:31:04.829Z,20.20
2023-05-20T08:33:32.846Z,20.20
2023-05-20T08:35:59.691Z,20.20
2023-05-20T08:38:26.619Z,20.20
2023-05-20T08:40:57.803Z,20.20
2023-05-20T08:43:26.409Z,20.30
2023-05-20T08:45:53.724Z,20.30
2023-05-20T08:48:25.643Z,20.30
2023-05-20T08:50:53.029Z,20.30
2023-05-20T08:53:21.921Z,20.30
2023-05-20T08:56:01.024Z,20.40
2023-05-20T08:58:29.424Z,20.40
2023-05-20T09:00:56.441Z,20.40
2023-05-20T09:03:24.272Z,20.40
2023-05-20T09:05:51.295Z,20.40
2023-05-20T09:08:18.181Z,20.50
2023-05-20T09:10:44.948Z,20.50
2023-05-20T09:13:12.092Z,20.50
2023-05-20T09:15:39.158Z,20.50
2023-05-20T09:18:07.616Z,20.50
2023-05-20T09:20:37.156Z,20.60
2023-05-20T09:23:10.055Z,20.60
2023-05-20T09:25:37.807Z,20.60
2023-05-20T09:28:08.688Z,20.60
2023-05-20T09:30:35.643Z,20.60
2023-05-20T09:33:04.966Z,20.60
2023-05-20T09:35:39.053Z,20.70
2023-05-20T09:38:09.223Z,20.70
2023-05-20T09:40:40.327Z,20.70
2023-05-20T09:43:08.032Z,20.70
2023-05-20T09:45:35.233Z,20.70
2023-05-20T09:48:03.823Z,20.70
2023-05-20T09:50:32.024Z,20.70
2023-05-20T09:53:03.781Z,20.80
2023-05-20T09:55:32.169Z,20.70
2023-05-20T09:58:03.159Z,20.70
2023-05-20T10:00:30.192Z,20.70
2023-05-20T10:02:57.257Z,20.70
2023-05-20T10:05:30.564Z,20.70
2023-05-20T10:08:05.696Z,20.70
2023-05-20T10:11:13.019Z,20.70
2023-05-20T10:14:01.826Z,20.70
2023-05-20T10:17:08.881Z,20.70
2023-05-20T10:19:36.205Z,20.70
2023-05-20T10:22:07.289Z,20.70
2023-05-20T10:24:41.890Z,20.70
2023-05-20T10:27:17.243Z,20.70
2023-05-20T10:29:45.080Z,20.70
2023-05-20T10:32:12.129Z,20.80
2023-05-20T10:34:50.567Z,20.80
2023-05-20T10:37:28.099Z,20.80
2023-05-20T10:40:12.315Z,20.80
2023-05-20T10:42:39.800Z,20.80
2023-05-20T10:45:07.980Z,20.80
2023-05-20T10:47:35.408Z,20.80
2023-05-20T10:50:04.697Z,20.80
2023-05-20T10:52:36.977Z,20.80
2023-05-20T10:55:04.928Z,20.80
2023-05-20T10:57:34.993Z,20.80
2023-05-20T11:00:01.932Z,20.80
2023-05-20T11:02:29.268Z,20.80
2023-05-20T11:04:59.270Z,20.80
2023-05-20T11:07:30.401Z,20.80
2023-05-20T11:09:58.479Z,20.80
2023-05-20T11:12:27.129Z,20.80
2023-05-20T11:14:54.671Z,20.80
2023-05-20T11:17:21.686Z,20.80
2023-05-20T11:19:48.905Z,20.90
2023-05-20T11:22:15.868Z,20.80
2023-05-20T11:24:42.691Z,20.80
2023-05-20T11:27:09.649Z,20.80
2023-05-20T11:29:36.904Z,20.80
2023-05-20T11:32:03.913Z,20.90
2023-05-20T11:34:36.260Z,20.80
2023-05-20T11:37:06.709Z,20.80
2023-05-20T11:39:39.740Z,20.80
2023-05-20T11:42:06.578Z,20.80
2023-05-20T11:44:33.849Z,20.90
2023-05-20T11:47:03.602Z,20.80
2023-05-20T11:49:31.222Z,20.80
2023-05-20T11:51:58.673Z,20.80
2023-05-20T11:54:26.224Z,20.80
2023-05-20T11:56:54.765Z,20.80
2023-05-20T11:59:24.410Z,20.80
2023-05-20T12:01:51.204Z,20.80
2023-05-20T12:04:18.572Z,20.80
2023-05-20T12:06:45.746Z,20.80
2023-05-20T12:09:14.063Z,20.80
2023-05-20T12:11:41.689Z,20.80
2023-05-20T12:14:09.424Z,20.80
2023-05-20T12:16:37.396Z,20.80
2023-05-20T12:19:04.578Z,20.80
2023-05-20T12:21:32.038Z,20.80
2023-05-20T12:24:02.025Z,20.80
2023-05-20T12:26:29.534Z,20.80
2023-05-20T12:28:56.970Z,20.80
2023-05-20T12:31:24.483Z,20.80
2023-05-20T12:33:51.447Z,20.80
2023-05-20T12:36:19.512Z,20.80
2023-05-20T12:38:46.473Z,20.80
2023-05-20T12:41:13.312Z,20.80
2023-05-20T12:43:40.023Z,20.80
2023-05-20T12:46:06.880Z,20.80
2023-05-20T12:48:33.644Z,20.70
2023-05-20T12:51:00.492Z,20.80
2023-05-20T12:53:27.407Z,20.80
2023-05-20T12:55:54.244Z,20.70
2023-05-20T12:58:21.224Z,20.70
2023-05-20T13:00:48.091Z,20.70
2023-05-20T13:03:15.270Z,20.70
2023-05-20T13:05:42.238Z,20.70
2023-05-20T13:08:10.245Z,20.70
2023-05-20T13:10:37.860Z,20.70
2023-05-20T13:13:05.032Z,20.70
2023-05-20T13:15:33.252Z,20.70
2023-05-20T13:18:01.437Z,20.70
2023-05-20T13:20:29.473Z,20.80
2023-05-20T13:22:56.319Z,20.70
2023-05-20T13:25:23.512Z,20.70
2023-05-20T13:27:51.005Z,20.70
2023-05-20T13:30:18.071Z,20.70
2023-05-20T13:32:46.348Z,20.80
2023-05-20T13:35:14.565Z,20.80
2023-05-20T13:37:41.711Z,20.80
2023-05-20T13:40:09.536Z,20.80
2023-05-20T13:42:36.557Z,20.80
2023-05-20T13:45:03.808Z,20.80
2023-05-20T13:47:31.146Z,20.80
2023-05-20T13:49:59.111Z,20.80
2023-05-20T13:52:26.960Z,20.80
2023-05-20T13:54:53.723Z,20.80
2023-05-20T13:57:20.519Z,20.80
2023-05-20T13:59:47.382Z,20.80
2023-05-20T14:02:14.178Z,20.80
2023-05-20T14:04:44.735Z,20.80
2023-05-20T14:07:11.475Z,20.80
2023-05-20T14:09:38.320Z,20.90
2023-05-20T14:12:06.218Z,20.80
2023-05-20T14:14:33.151Z,20.80
2023-05-20T14:16:59.941Z,20.80
2023-05-20T14:19:27.411Z,20.80
2023-05-20T14:21:54.390Z,20.90
2023-05-20T14:24:23.462Z,20.90
2023-05-20T14:26:50.782Z,20.90
2023-05-20T14:29:17.669Z,20.90
2023-05-20T14:31:44.773Z,20.90
2023-05-20T14:34:11.650Z,20.90
2023-05-20T14:36:38.891Z,21.00
2023-05-20T14:39:05.903Z,21.00
2023-05-20T14:41:32.680Z,21.00
2023-05-20T14:43:59.622Z,21.00
2023-05-20T14:46:26.528Z,21.00
2023-05-20T14:48:53.456Z,21.10
2023-05-20T14:51:20.384Z,21.00
2023-05-20T14:53:47.117Z,21.10
2023-05-20T14:56:13.948Z,21.10
2023-05-20T14:58:41.183Z,21.10
2023-05-20T15:01:08.112Z,21.10
2023-05-20T15:03:35.050Z,21.10
2023-05-20T15:06:01.968Z,21.10
2023-05-20T15:08:28.699Z,21.20
2023-05-20T15:10:55.765Z,21.20
2023-05-20T15:13:22.661Z,21.20
2023-05-20T15:15:49.437Z,21.20
2023-05-20T15:18:16.811Z,21.20
2023-05-20T15:20:43.909Z,21.30
2023-05-20T15:23:11.273Z,21.20
2023-05-20T15:25:38.102Z,21.30
2023-05-20T15:28:04.988Z,21.30
2023-05-20T15:30:31.846Z,21.30
2023-05-20T15:32:58.848Z,21.30
2023-05-20T15:35:25.753Z,21.40
2023-05-20T15:37:53.065Z,21.40
2023-05-20T15:40:19.811Z,21.40
2023-05-20T15:42:47.369Z,21.40
2023-05-20T15:45:14.125Z,21.40
2023-05-20T15:47:41.072Z,21.40
2023-05-20T15:50:08.736Z,21.40
2023-05-20T15:52:35.806Z,21.40
2023-05-20T15:55:03.397Z,21.40
2023-05-20T15:57:30.669Z,21.50
2023-05-20T15:59:57.823Z,21.50
2023-05-20T16:02:25.054Z,21.50
2023-05-20T16:04:52.514Z,21.50
2023-05-20T16:07:19.483Z,21.50
2023-05-20T16:09:46.224Z,21.60
2023-05-20T16:12:13.054Z,21.60
2023-05-20T16:14:39.837Z,21.60
2023-05-20T16:17:06.575Z,21.60
2023-05-20T16:19:33.515Z,21.60
2023-05-20T16:22:00.408Z,21.70
2023-05-20T16:24:27.176Z,21.70
2023-05-20T16:26:54.303Z,21.60
2023-05-20T16:29:21.344Z,21.70
2023-05-20T16:31:48.165Z,21.70
2023-05-20T16:34:16.647Z,21.70
2023-05-20T16:36:45.242Z,21.70
2023-05-20T16:39:13.198Z,21.70
2023-05-20T16:41:40.029Z,21.70
2023-05-20T16:44:06.932Z,21.70
2023-05-20T16:46:34.056Z,21.70
2023-05-20T16:49:01.239Z,21.70
2023-05-20T16:51:27.992Z,21.70
2023-05-20T16:53:54.765Z,21.70
2023-05-20T16:56:22.192Z,21.80
2023-05-20T16:58:52.016Z,21.80
2023-05-20T17:01:20.044Z,21.80
2023-05-20T17:03:46.936Z,21.80
2023-05-20T17:06:13.793Z,21.80
2023-05-20T17:08:40.608Z,21.80
2023-05-20T17:11:07.337Z,21.80
2023-05-20T17:13:34.100Z,21.80
2023-05-20T17:16:01.048Z,21.90
2023-05-20T17:18:27.812Z,21.90
2023-05-20T17:20:54.620Z,21.90
2023-05-20T17:23:21.357Z,21.90
2023-05-20T17:25:48.129Z,21.90
2023-05-20T17:28:15.009Z,21.90
2023-05-20T17:30:41.785Z,22.00
2023-05-20T17:33:08.725Z,21.90
2023-05-20T17:35:36.574Z,22.00
2023-05-20T17:38:03.379Z,22.00
2023-05-20T17:40:30.158Z,22.00
2023-05-20T17:42:56.971Z,22.00
2023-05-20T17:45:23.900Z,22.00
2023-05-20T17:47:50.937Z,22.00
2023-05-20T17:50:17.805Z,22.00
2023-05-20T17:52:44.664Z,22.00
2023-05-20T17:55:12.832Z,22.00
2023-05-20T17:57:39.678Z,22.10
2023-05-20T18:00:10.228Z,22.10
2023-05-20T18:02:38.397Z,22.10
2023-05-20T18:05:06.530Z,22.10
2023-05-20T18:07:33.621Z,22.10
2023-05-20T18:10:00.681Z,22.10
2023-05-20T18:12:27.694Z,22.10
2023-05-20T18:14:54.556Z,22.10
2023-05-20T18:17:21.526Z,22.10
2023-05-20T18:19:48.377Z,22.10
2023-05-20T18:22:15.112Z,22.10
2023-05-20T18:24:42.493Z,22.10
2023-05-20T18:27:09.312Z,22.10
2023-05-20T18:29:36.207Z,22.10
2023-05-20T18:32:03.126Z,22.10
2023-05-20T18:34:30.060Z,22.10
2023-05-20T18:36:56.853Z,22.10
2023-05-20T18:39:23.704Z,22.10
2023-05-20T18:41:50.732Z,22.00
2023-05-20T18:44:18.556Z,22.00
2023-05-20T18:46:46.098Z,22.00
2023-05-20T18:49:12.927Z,22.00
2023-05-20T18:51:40.765Z,22.00
2023-05-20T18:54:07.688Z,22.00
2023-05-20T18:56:34.780Z,22.00
2023-05-20T18:59:01.564Z,22.00
2023-05-20T19:01:28.307Z,22.00
2023-05-20T19:03:55.127Z,22.00
2023-05-20T19:06:22.105Z,22.00
2023-05-20T19:08:51.894Z,22.00
2023-05-20T19:11:19.043Z,22.00
2023-05-20T19:13:45.922Z,22.00
2023-05-20T19:16:12.916Z,22.00
2023-05-20T19:18:39.752Z,22.00
2023-05-20T19:21:06.511Z,21.90
2023-05-20T19:23:33.436Z,22.00
2023-05-20T19:26:00.716Z,22.00
2023-05-20T19:28:27.584Z,22.00
2023-05-20T19:30:54.453Z,21.90
2023-05-20T19:33:21.782Z,21.90
2023-05-20T19:35:48.582Z,22.00
2023-05-20T19:38:15.836Z,21.90
2023-05-20T19:40:44.496Z,22.00
2023-05-20T19:43:11.374Z,21.90
2023-05-20T19:45:38.391Z,21.90
2023-05-20T19:48:06.045Z,21.90
2023-05-20T19:50:33.658Z,22.00
2023-05-20T19:53:01.232Z,21.90
2023-05-20T19:55:27.973Z,22.00
2023-05-20T19:57:54.832Z,21.90
2023-05-20T20:00:22.064Z,22.00
2023-05-20T20:02:49.760Z,21.90
2023-05-20T20:05:16.749Z,21.90
2023-05-20T20:07:43.603Z,22.00
2023-05-20T20:10:11.039Z,21.90
2023-05-20T20:12:37.801Z,22.00
2023-05-20T20:15:04.921Z,21.90
2023-05-20T20:17:33.727Z,21.90
2023-05-20T20:20:01.013Z,21.90
2023-05-20T20:22:27.979Z,21.90
2023-05-20T20:24:54.856Z,21.90
2023-05-20T20:27:23.724Z,21.90
2023-05-20T20:29:51.188Z,21.90
2023-05-20T20:32:18.387Z,21.90
2023-05-20T20:34:45.850Z,21.90
2023-05-20T20:37:14.875Z,21.90
2023-05-20T20:39:45.221Z,21.90
2023-05-20T20:42:12.041Z,21.90
2023-05-20T20:44:42.567Z,21.90
2023-05-20T20:47:09.844Z,21.90
2023-05-20T20:49:36.746Z,21.90
2023-05-20T20:52:03.643Z,21.80
2023-05-20T20:54:32.716Z,21.80
2023-05-20T20:57:03.992Z,21.80
2023-05-20T20:59:30.806Z,21.80
2023-05-20T21:01:57.804Z,21.80
2023-05-20T21:04:27.193Z,21.80
2023-05-20T21:06:53.912Z,21.80
2023-05-20T21:09:20.716Z,21.80
2023-05-20T21:11:49.305Z,21.80
2023-05-20T21:14:16.148Z,21.80
2023-05-20T21:16:43.417Z,21.80
2023-05-20T21:19:10.540Z,21.80
2023-05-20T21:21:37.400Z,21.80
2023-05-20T21:24:04.254Z,21.70
2023-05-20T21:26:31.012Z,21.70
2023-05-20T21:28:57.881Z,21.70
2023-05-20T21:31:24.754Z,21.70
2023-05-20T21:33:51.957Z,21.70
2023-05-20T21:36:18.720Z,21.70
2023-05-20T21:38:45.437Z,21.70
2023-05-20T21:41:12.228Z,21.70
2023-05-20T21:43:39.063Z,21.70
2023-05-20T21:46:07.808Z,21.70
2023-05-20T21:48:34.680Z,21.70
2023-05-20T21:51:01.397Z,21.70
2023-05-20T21:53:28.116Z,21.70
2023-05-20T21:55:54.882Z,21.70
2023-05-20T21:58:21.632Z,21.60
2023-05-20T22:00:48.536Z,21.60
2023-05-20T22:03:15.389Z,21.60
2023-05-20T22:05:46.223Z,21.60
2023-05-20T22:08:13.273Z,21.60
2023-05-20T22:10:40.098Z,21.60
2023-05-20T22:13:06.944Z,21.60
2023-05-20T22:15:34.170Z,21.60
2023-05-20T22:18:03.739Z,21.60
2023-05-20T22:20:33.782Z,21.60
2023-05-20T22:23:01.265Z,21.60
2023-05-20T22:25:28.141Z,21.50
2023-05-20T22:27:54.960Z,21.50
2023-05-20T22:30:21.829Z,21.50
2023-05-20T22:32:48.634Z,21.50
2023-05-20T22:35:15.568Z,21.50
2023-05-20T22:37:43.155Z,21.50
2023-05-20T22:40:10.812Z,21.50
2023-05-20T22:42:37.526Z,21.40
2023-05-20T22:45:04.859Z,21.50
2023-05-20T22:47:31.715Z,21.40
2023-05-20T22:50:02.260Z,21.40
2023-05-20T22:52:29.814Z,21.40
2023-05-20T22:54:57.279Z,21.40
2023-05-20T22:57:25.248Z,21.40
2023-05-20T22:59:53.866Z,21.40
2023-05-20T23:02:20.795Z,21.40
2023-05-20T23:04:47.966Z,21.40
2023-05-20T23:07:16.131Z,21.40
2023-05-20T23:09:42.977Z,21.40
2023-05-20T23:12:09.734Z,21.40
2023-05-20T23:14:36.512Z,21.30
2023-05-20T23:17:03.522Z,21.30
2023-05-20T23:19:30.487Z,21.30
2023-05-20T23:21:57.350Z,21.30
2023-05-20T23:24:24.165Z,21.30
2023-05-20T23:26:51.121Z,21.30
2023-05-20T23:29:17.862Z,21.30
2023-05-20T23:31:44.681Z,21.30
2023-05-20T23:34:11.927Z,21.20
2023-05-20T23:36:41.874Z,21.30
2023-05-20T23:39:08.775Z,21.20
2023-05-20T23:41:35.622Z,21.20
2023-05-20T23:44:03.792Z,21.20
2023-05-20T23:46:30.610Z,21.20
2023-05-20T23:48:57.367Z,21.20
2023-05-20T23:51:24.073Z,21.20
2023-05-20T23:53:51.017Z,21.20
2023-05-20T23:56:17.753Z,21.20
2023-05-20T23:58:44.525Z,21.20
